Time;durP1;ratioP1;P1;durP2;ratioP2;P2;SDS_P1;SDS_P2;PMS_P1;PMS_P2;Temp;Humidity;BMP_temperature;BMP_pressure;BME280_temperature;BME280_humidity;BME280_pressure;Samples;Min_cycle;Max_cycle;Signal;HPM_P1;HPM_P2
2024/01/15 00:00:52;;;;;;;0.90;0.70;;;16.80;58.80;;;;;;4842376;29;20288;-82
2024/01/15 00:03:17;;;;;;;1.00;0.70;;;16.90;58.90;;;;;;4809524;29;20312;-82
2024/01/15 00:05:44;;;;;;;1.38;0.40;;;16.90;58.70;;;;;;4825130;29;20257;-81
2024/01/15 00:08:09;;;;;;;2.35;0.60;;;16.80;58.70;;;;;;4841294;29;20249;-81
2024/01/15 00:10:41;;;;;;;0.80;0.50;;;16.80;58.80;;;;;;4841444;29;20240;-81
2024/01/15 00:13:07;;;;;;;1.48;0.63;;;16.80;58.70;;;;;;4823971;29;20194;-82
2024/01/15 00:15:34;;;;;;;1.05;0.50;;;16.80;58.70;;;;;;4824825;29;20255;-81
2024/01/15 00:18:01;;;;;;;1.25;0.57;;;16.80;58.70;;;;;;4825197;29;20680;-83
2024/01/15 00:20:27;;;;;;;1.05;0.70;;;16.80;58.60;;;;;;4840292;29;20244;-83
2024/01/15 00:22:56;;;;;;;2.22;0.70;;;16.80;58.70;;;;;;4839603;29;20177;-83
2024/01/15 00:25:22;;;;;;;1.25;0.70;;;16.80;58.70;;;;;;4824885;29;20268;-83
2024/01/15 00:27:49;;;;;;;1.70;0.60;;;16.80;58.60;;;;;;4820129;29;20279;-82
2024/01/15 00:30:17;;;;;;;2.08;0.82;;;16.80;58.50;;;;;;4813696;29;20167;-82
2024/01/15 00:32:46;;;;;;;1.15;0.70;;;16.80;58.30;;;;;;4828788;29;20267;-83
2024/01/15 00:35:13;;;;;;;3.05;0.70;;;16.90;58.70;;;;;;4859680;29;20196;-82
2024/01/15 00:37:39;;;;;;;0.52;0.50;;;16.80;59.10;;;;;;4812794;29;20252;-82
2024/01/15 00:40:07;;;;;;;1.58;0.80;;;16.80;59.30;;;;;;4843428;29;20161;-82
2024/01/15 00:42:34;;;;;;;0.80;0.65;;;16.80;58.70;;;;;;4816123;29;20220;-82
2024/01/15 00:44:59;;;;;;;1.98;0.70;;;16.80;58.80;;;;;;4828869;29;20578;-82
2024/01/15 00:47:25;;;;;;;3.25;0.65;;;16.70;58.70;;;;;;4813011;29;20221;-82
2024/01/15 00:49:52;;;;;;;1.13;0.75;;;16.80;58.70;;;;;;4813097;29;20170;-82
2024/01/15 00:52:18;;;;;;;1.13;0.47;;;16.80;58.80;;;;;;4827468;29;20179;-82
2024/01/15 00:54:46;;;;;;;1.25;0.75;;;16.80;58.90;;;;;;4827961;29;20162;-81
2024/01/15 00:57:13;;;;;;;1.65;0.65;;;16.80;58.90;;;;;;4812016;29;20185;-82
2024/01/15 00:59:39;;;;;;;1.23;0.90;;;16.80;58.80;;;;;;4813591;29;20245;-82
2024/01/15 01:02:04;;;;;;;0.90;0.57;;;16.80;58.70;;;;;;4826577;29;20279;-82
2024/01/15 01:04:30;;;;;;;1.13;0.60;;;16.80;58.70;;;;;;4809354;29;20178;-82
2024/01/15 01:06:56;;;;;;;2.35;0.60;;;16.70;58.70;;;;;;4809707;29;20615;-82
2024/01/15 01:09:23;;;;;;;0.40;0.35;;;16.80;58.70;;;;;;4794366;29;20307;-82
2024/01/15 01:11:49;;;;;;;1.92;0.75;;;16.70;58.50;;;;;;4809906;29;20654;-82
2024/01/15 01:14:19;;;;;;;1.75;0.60;;;16.80;58.60;;;;;;4809289;29;20163;-82
2024/01/15 01:16:46;;;;;;;2.30;0.55;;;16.80;58.50;;;;;;4789004;29;20192;-82
2024/01/15 01:19:16;;;;;;;0.70;0.70;;;16.70;58.60;;;;;;4795703;29;20193;-81
2024/01/15 01:21:43;;;;;;;0.98;0.63;;;16.70;58.70;;;;;;4748388;29;20278;-82
2024/01/15 01:24:10;;;;;;;0.75;0.70;;;16.80;58.40;;;;;;4792321;29;20196;-82
2024/01/15 01:26:36;;;;;;;1.77;0.60;;;16.70;58.60;;;;;;4792399;29;20190;-82
2024/01/15 01:29:02;;;;;;;0.80;0.60;;;16.70;58.70;;;;;;4793533;29;20217;-82
2024/01/15 01:31:29;;;;;;;1.15;0.50;;;16.70;58.60;;;;;;4808913;29;20175;-82
2024/01/15 01:33:55;;;;;;;1.08;0.55;;;16.70;58.70;;;;;;4824939;29;20162;-83
2024/01/15 01:36:21;;;;;;;3.17;0.85;;;16.70;58.50;;;;;;4809613;29;20163;-83
2024/01/15 01:38:51;;;;;;;1.02;0.57;;;16.60;58.60;;;;;;4809761;29;20177;-83
2024/01/15 01:41:24;;;;;;;0.70;0.60;;;16.70;58.70;;;;;;4764200;29;20229;-83
2024/01/15 01:43:54;;;;;;;1.63;0.90;;;16.70;58.60;;;;;;4779635;29;20194;-82
2024/01/15 01:46:19;;;;;;;0.65;0.57;;;16.70;58.60;;;;;;4763876;29;20193;-82
2024/01/15 01:48:50;;;;;;;1.08;0.50;;;16.70;58.70;;;;;;4809495;29;21032;-82
2024/01/15 01:51:19;;;;;;;1.77;0.50;;;16.60;58.60;;;;;;4810360;29;20562;-82
2024/01/15 01:53:45;;;;;;;2.05;0.60;;;16.70;58.60;;;;;;4805956;29;20163;-82
2024/01/15 01:56:11;;;;;;;2.10;1.00;;;16.70;58.70;;;;;;4790758;29;20175;-82
2024/01/15 01:58:37;;;;;;;0.95;0.55;;;16.70;58.70;;;;;;4806268;29;20261;-82
2024/01/15 02:01:03;;;;;;;0.90;0.77;;;16.70;58.80;;;;;;4791386;29;20282;-81
2024/01/15 02:03:30;;;;;;;0.95;0.50;;;16.70;58.50;;;;;;4802426;29;20571;-81
2024/01/15 02:05:59;;;;;;;0.70;0.57;;;16.70;58.80;;;;;;4810035;29;20205;-82
2024/01/15 02:08:29;;;;;;;0.98;0.60;;;16.60;58.80;;;;;;4825592;29;20197;-82
2024/01/15 02:10:59;;;;;;;1.90;0.80;;;16.50;58.90;;;;;;4808534;29;20190;-82
2024/01/15 02:13:25;;;;;;;1.35;0.57;;;16.70;58.60;;;;;;4823776;29;20668;-82
2024/01/15 02:15:52;;;;;;;1.50;0.60;;;16.70;58.60;;;;;;4809419;29;20166;-81
2024/01/15 02:18:18;;;;;;;0.50;0.45;;;16.60;58.60;;;;;;4809054;29;20170;-82
2024/01/15 02:20:44;;;;;;;0.90;0.60;;;16.60;58.60;;;;;;4809515;29;20561;-81
2024/01/15 02:23:13;;;;;;;2.60;0.60;;;16.60;58.70;;;;;;4826601;29;20193;-81
2024/01/15 02:25:40;;;;;;;1.65;0.52;;;16.70;58.70;;;;;;4830735;29;20164;-82
2024/01/15 02:28:09;;;;;;;1.17;0.50;;;16.60;58.70;;;;;;4830421;29;20176;-82
2024/01/15 02:30:39;;;;;;;0.98;0.55;;;16.60;58.40;;;;;;4830307;29;20165;-81
2024/01/15 02:33:05;;;;;;;0.65;0.50;;;16.60;58.70;;;;;;4814354;29;20598;-81
2024/01/15 02:35:32;;;;;;;0.85;0.60;;;16.60;58.70;;;;;;4830011;29;20157;-81
2024/01/15 02:37:57;;;;;;;1.20;0.70;;;16.60;58.70;;;;;;4845669;29;20173;-81
2024/01/15 02:40:23;;;;;;;1.17;0.50;;;16.60;58.80;;;;;;4830199;29;20214;-81
2024/01/15 02:42:49;;;;;;;1.70;0.70;;;16.70;58.70;;;;;;4830343;29;20196;-81
2024/01/15 02:45:14;;;;;;;0.45;0.40;;;16.60;58.70;;;;;;4829683;29;20199;-82
2024/01/15 02:47:44;;;;;;;1.58;0.70;;;16.60;58.60;;;;;;4845322;29;20310;-81
2024/01/15 02:50:11;;;;;;;0.85;0.50;;;16.60;58.80;;;;;;4813950;29;20184;-81
2024/01/15 02:52:37;;;;;;;0.88;0.50;;;16.60;58.80;;;;;;4830989;29;20173;-82
2024/01/15 02:55:04;;;;;;;0.73;0.50;;;16.50;58.70;;;;;;4843288;29;20157;-81
2024/01/15 02:57:30;;;;;;;1.27;0.60;;;16.50;58.80;;;;;;4826790;29;20176;-82
2024/01/15 02:59:55;;;;;;;0.98;0.65;;;16.50;58.70;;;;;;4826567;29;20162;-82
2024/01/15 03:02:21;;;;;;;0.60;0.60;;;16.60;58.70;;;;;;4808318;29;20253;-82
2024/01/15 03:04:47;;;;;;;1.15;0.50;;;16.60;58.70;;;;;;4790024;29;20183;-82
2024/01/15 03:07:12;;;;;;;0.73;0.50;;;16.60;58.80;;;;;;4805529;29;20187;-82
2024/01/15 03:09:39;;;;;;;1.23;0.60;;;16.60;58.70;;;;;;4790472;29;20655;-82
2024/01/15 03:12:06;;;;;;;0.88;0.45;;;16.60;58.80;;;;;;4805286;29;20181;-82
2024/01/15 03:14:32;;;;;;;0.70;0.43;;;16.60;58.70;;;;;;4820914;29;20169;-82
2024/01/15 03:17:00;;;;;;;1.92;0.60;;;16.60;58.70;;;;;;4805898;29;20600;-82
2024/01/15 03:19:26;;;;;;;0.88;0.70;;;16.60;58.70;;;;;;4811018;29;20188;-82
2024/01/15 03:21:52;;;;;;;1.70;0.60;;;16.60;58.70;;;;;;4808409;29;20300;-82
2024/01/15 03:24:17;;;;;;;1.48;0.60;;;16.60;58.70;;;;;;4791947;29;20194;-82
2024/01/15 03:26:47;;;;;;;1.25;0.57;;;16.50;58.50;;;;;;4806841;29;20655;-82
2024/01/15 03:29:28;;;;;;;0.80;0.50;;;16.60;58.70;;;;;;4776186;29;20215;-82
2024/01/15 03:32:26;;;;;;;0.60;0.45;;;16.60;58.70;;;;;;4777910;29;20194;-82
2024/01/15 03:34:54;;;;;;;1.02;0.70;;;16.60;58.80;;;;;;4776620;29;20190;-82
2024/01/15 03:37:23;;;;;;;1.15;0.50;;;16.40;58.80;;;;;;4776244;29;20600;-81
2024/01/15 03:39:48;;;;;;;0.60;0.52;;;16.50;58.70;;;;;;4776478;29;20190;-82
2024/01/15 03:42:14;;;;;;;0.82;0.60;;;16.50;58.70;;;;;;4807475;29;20266;-83
2024/01/15 03:44:41;;;;;;;2.00;0.50;;;16.50;58.70;;;;;;4807694;29;20162;-83
2024/01/15 03:47:10;;;;;;;0.85;0.50;;;16.50;58.70;;;;;;4807740;29;20181;-82
2024/01/15 03:49:36;;;;;;;1.45;0.50;;;16.50;58.80;;;;;;4776210;29;20189;-82
2024/01/15 03:52:03;;;;;;;1.08;0.65;;;16.50;58.80;;;;;;4806655;29;20170;-82
2024/01/15 03:54:28;;;;;;;1.15;0.63;;;16.50;58.90;;;;;;4791685;29;20226;-84
2024/01/15 03:56:54;;;;;;;1.08;0.60;;;16.40;58.80;;;;;;4792080;29;20178;-82
2024/01/15 03:59:22;;;;;;;0.85;0.50;;;16.50;58.70;;;;;;4823338;29;20214;-82
2024/01/15 04:01:50;;;;;;;0.77;0.50;;;16.50;58.80;;;;;;4823130;29;20704;-82
2024/01/15 04:04:17;;;;;;;0.85;0.50;;;16.40;58.70;;;;;;4808248;29;20328;-82
2024/01/15 04:06:43;;;;;;;2.10;0.50;;;16.50;58.80;;;;;;4825184;29;20157;-82
2024/01/15 04:09:13;;;;;;;0.95;0.40;;;16.50;58.80;;;;;;4825515;29;20260;-82
2024/01/15 04:11:39;;;;;;;0.40;0.40;;;16.40;58.80;;;;;;4824209;29;20201;-82
2024/01/15 04:14:05;;;;;;;1.88;0.60;;;16.40;58.60;;;;;;4810320;29;20165;-83
2024/01/15 04:16:31;;;;;;;2.90;0.77;;;16.50;58.70;;;;;;4809620;29;20180;-82
2024/01/15 04:18:57;;;;;;;1.08;0.60;;;16.50;58.70;;;;;;4812390;29;20515;-82
2024/01/15 04:21:22;;;;;;;1.13;0.60;;;16.50;58.70;;;;;;4845318;29;20661;-82
2024/01/15 04:23:48;;;;;;;0.88;0.70;;;16.50;58.60;;;;;;4813979;29;20260;-82
2024/01/15 04:26:14;;;;;;;1.23;0.68;;;16.50;58.70;;;;;;4829174;29;20168;-82
2024/01/15 04:28:41;;;;;;;1.10;0.52;;;16.40;58.70;;;;;;4828196;29;20682;-82
2024/01/15 04:31:20;;;;;;;0.55;0.47;;;16.40;58.80;;;;;;4782586;29;20690;-82
2024/01/15 04:33:47;;;;;;;1.05;0.60;;;16.40;58.70;;;;;;4784569;29;20189;-83
2024/01/15 04:36:13;;;;;;;0.55;0.50;;;16.30;58.80;;;;;;4811932;29;20189;-82
2024/01/15 04:38:44;;;;;;;0.52;0.45;;;16.40;58.80;;;;;;4827833;29;20161;-82
2024/01/15 04:41:15;;;;;;;0.70;0.40;;;16.40;58.90;;;;;;4812124;29;20304;-82
2024/01/15 04:43:42;;;;;;;1.30;0.80;;;16.40;58.70;;;;;;4796889;29;20189;-83
2024/01/15 04:46:13;;;;;;;0.82;0.50;;;16.50;58.50;;;;;;4803843;29;20203;-81
2024/01/15 04:48:39;;;;;;;1.20;0.63;;;16.40;58.70;;;;;;4815366;29;20189;-81
2024/01/15 04:51:08;;;;;;;0.50;0.40;;;16.40;58.80;;;;;;4812589;29;20769;-81
2024/01/15 04:53:34;;;;;;;0.73;0.50;;;16.40;58.90;;;;;;4828577;29;20169;-81
2024/01/15 04:56:01;;;;;;;1.40;0.40;;;16.30;58.70;;;;;;4828793;29;20217;-81
2024/01/15 04:58:27;;;;;;;1.23;0.50;;;16.40;58.80;;;;;;4846363;29;20168;-81
2024/01/15 05:00:57;;;;;;;1.33;0.40;;;16.40;58.70;;;;;;4830579;29;20268;-82
2024/01/15 05:03:23;;;;;;;2.63;0.75;;;16.40;58.80;;;;;;4819456;29;20240;-81
2024/01/15 05:05:49;;;;;;;0.70;0.50;;;16.30;58.80;;;;;;4828213;29;20614;-81
2024/01/15 05:10:53;;;;;;;0.75;0.50;;;16.40;58.60;;;;;;4871214;23;20247;-81
2024/01/15 05:13:19;;;;;;;1.17;0.60;;;16.40;58.70;;;;;;4849448;29;20240;-82
2024/01/15 05:15:44;;;;;;;0.60;0.52;;;16.40;58.70;;;;;;4840918;29;20637;-82
2024/01/15 05:18:10;;;;;;;1.13;0.47;;;16.40;58.50;;;;;;4838317;29;20174;-82
2024/01/15 05:20:36;;;;;;;0.50;0.50;;;16.40;58.70;;;;;;4880806;29;20568;-82
2024/01/15 05:23:03;;;;;;;0.40;0.40;;;16.40;58.60;;;;;;4848767;29;20172;-82
2024/01/15 05:25:29;;;;;;;1.60;0.60;;;16.40;58.80;;;;;;4863938;29;20164;-82
2024/01/15 05:27:55;;;;;;;1.45;0.68;;;16.40;58.70;;;;;;4864004;29;20176;-81
2024/01/15 05:30:25;;;;;;;0.85;0.50;;;16.40;58.70;;;;;;4849289;29;20270;-82
2024/01/15 05:32:51;;;;;;;0.52;0.50;;;16.40;58.60;;;;;;4832759;29;20195;-83
2024/01/15 05:35:16;;;;;;;0.55;0.40;;;16.40;58.70;;;;;;4848125;29;20168;-83
2024/01/15 05:37:45;;;;;;;0.55;0.50;;;16.40;58.60;;;;;;4833649;29;20176;-82
2024/01/15 05:40:13;;;;;;;1.25;0.57;;;16.40;58.50;;;;;;4831928;29;20192;-82
2024/01/15 05:42:40;;;;;;;1.52;0.52;;;16.40;58.50;;;;;;4849184;29;20196;-83
2024/01/15 05:45:09;;;;;;;1.13;0.50;;;16.30;58.50;;;;;;4848623;29;20711;-82
2024/01/15 05:47:39;;;;;;;1.55;0.50;;;16.40;58.70;;;;;;4831893;29;20188;-82
2024/01/15 05:50:08;;;;;;;1.17;0.50;;;16.40;58.60;;;;;;4847238;29;20724;-82
2024/01/15 05:52:37;;;;;;;0.85;0.40;;;16.30;58.60;;;;;;4846587;29;20187;-82
2024/01/15 05:55:08;;;;;;;1.48;0.63;;;16.30;58.60;;;;;;4809707;29;20205;-82
2024/01/15 05:57:33;;;;;;;0.45;0.30;;;16.40;58.60;;;;;;4780587;29;20314;-82
2024/01/15 06:00:03;;;;;;;2.20;0.80;;;16.40;58.60;;;;;;4795603;29;20277;-83
2024/01/15 06:02:31;;;;;;;0.70;0.52;;;16.30;58.70;;;;;;4810573;29;20316;-82
2024/01/15 06:05:01;;;;;;;0.90;0.60;;;16.40;58.80;;;;;;4795810;29;20216;-82
2024/01/15 06:07:27;;;;;;;0.75;0.50;;;16.40;58.50;;;;;;4795940;29;20241;-82
2024/01/15 06:09:53;;;;;;;0.57;0.43;;;16.40;58.70;;;;;;4810015;29;20233;-82
2024/01/15 06:12:20;;;;;;;0.82;0.50;;;16.30;58.50;;;;;;4810334;29;20671;-82
2024/01/15 06:14:47;;;;;;;0.93;0.60;;;16.30;58.40;;;;;;4794837;29;20190;-82
2024/01/15 06:17:16;;;;;;;1.08;0.40;;;16.40;58.50;;;;;;4796595;29;20280;-83
2024/01/15 06:19:46;;;;;;;0.95;0.50;;;16.50;57.90;;;;;;4783278;29;20280;-82
2024/01/15 06:22:12;;;;;;;0.65;0.40;;;16.50;57.80;;;;;;4782508;29;20677;-82
2024/01/15 06:24:40;;;;;;;1.00;0.60;;;16.60;57.70;;;;;;4812763;29;20649;-81
2024/01/15 06:27:06;;;;;;;0.90;0.40;;;16.70;57.90;;;;;;4863205;29;20180;-81
2024/01/15 06:29:32;;;;;;;0.82;0.68;;;16.60;57.70;;;;;;4850193;29;20555;-81
2024/01/15 06:31:59;;;;;;;1.05;0.60;;;16.60;57.90;;;;;;4868191;29;20188;-82
2024/01/15 06:34:24;;;;;;;0.55;0.50;;;16.60;58.00;;;;;;4835983;29;20168;-82
2024/01/15 06:36:54;;;;;;;1.85;0.60;;;16.60;57.80;;;;;;4856356;29;20170;-82
2024/01/15 06:39:24;;;;;;;1.25;0.65;;;16.60;57.80;;;;;;4837914;29;20184;-82
2024/01/15 06:41:50;;;;;;;0.68;0.52;;;16.60;57.80;;;;;;4840882;29;20211;-83
2024/01/15 06:44:21;;;;;;;1.13;0.70;;;16.60;57.70;;;;;;4858672;29;20265;-83
2024/01/15 06:46:49;;;;;;;0.68;0.68;;;16.60;57.70;;;;;;4870697;29;20149;-82
2024/01/15 06:49:15;;;;;;;0.65;0.40;;;16.60;57.70;;;;;;4823641;29;20192;-82
2024/01/15 06:51:42;;;;;;;0.63;0.40;;;16.60;57.60;;;;;;4868015;29;20199;-82
2024/01/15 06:54:09;;;;;;;0.60;0.40;;;16.60;57.80;;;;;;4866498;29;20157;-82
2024/01/15 06:56:37;;;;;;;0.70;0.55;;;16.60;58.40;;;;;;4817968;29;20195;-82
2024/01/15 06:59:08;;;;;;;0.63;0.50;;;16.60;57.80;;;;;;4834056;29;20640;-82
2024/01/15 07:01:35;;;;;;;0.70;0.50;;;16.60;57.90;;;;;;4818921;29;20272;-82
2024/01/15 07:04:00;;;;;;;1.10;0.63;;;16.60;58.40;;;;;;4849598;29;20291;-83
2024/01/15 07:06:33;;;;;;;1.25;0.50;;;16.60;57.80;;;;;;4854900;29;20212;-82
2024/01/15 07:08:59;;;;;;;0.55;0.50;;;16.60;57.80;;;;;;4820894;29;20223;-83
2024/01/15 07:11:25;;;;;;;0.68;0.55;;;16.60;57.50;;;;;;4858133;29;20164;-84
2024/01/15 07:13:51;;;;;;;5.47;0.70;;;16.50;57.50;;;;;;4855905;29;20243;-82
2024/01/15 07:16:18;;;;;;;0.57;0.50;;;16.60;57.30;;;;;;4851105;29;20195;-81
2024/01/15 07:18:49;;;;;;;0.65;0.40;;;16.60;56.80;;;;;;4835522;29;20169;-82
2024/01/15 07:21:20;;;;;;;0.60;0.50;;;16.70;56.30;;;;;;4821276;29;20248;-81
2024/01/15 07:23:49;;;;;;;1.25;0.50;;;16.80;56.30;;;;;;4820444;29;20192;-81
2024/01/15 07:26:17;;;;;;;1.25;0.60;;;16.90;56.10;;;;;;4867486;29;20723;-83
2024/01/15 07:28:44;;;;;;;3.42;0.60;;;16.90;55.80;;;;;;4833277;29;20192;-82
2024/01/15 07:31:10;;;;;;;0.60;0.50;;;16.90;56.10;;;;;;4865081;29;20624;-84
2024/01/15 07:33:36;;;;;;;0.80;0.40;;;16.80;56.30;;;;;;4886075;29;20168;-82
2024/01/15 07:36:03;;;;;;;1.38;0.47;;;16.90;55.60;;;;;;4852802;29;20162;-81
2024/01/15 07:38:31;;;;;;;0.63;0.47;;;16.90;56.00;;;;;;4843345;29;20331;-81
2024/01/15 07:40:58;;;;;;;1.00;0.52;;;16.90;55.50;;;;;;4829176;29;20211;-81
2024/01/15 07:43:26;;;;;;;0.55;0.32;;;17.00;55.70;;;;;;4848462;29;20196;-79
2024/01/15 07:45:54;;;;;;;0.82;0.50;;;16.90;56.00;;;;;;4834536;29;20202;-80
2024/01/15 07:48:25;;;;;;;1.92;0.70;;;16.90;55.40;;;;;;4871108;29;20363;-81
2024/01/15 07:50:53;;;;;;;1.95;0.60;;;16.90;55.30;;;;;;4824460;29;20180;-82
2024/01/15 07:53:20;;;;;;;2.95;0.57;;;16.90;56.20;;;;;;4870977;29;20176;-81
2024/01/15 07:55:46;;;;;;;1.20;0.60;;;16.90;55.90;;;;;;4857425;29;20199;-80
2024/01/15 07:58:12;;;;;;;0.85;0.50;;;16.90;55.70;;;;;;4886764;29;20200;-81
2024/01/15 08:00:39;;;;;;;0.57;0.40;;;16.80;55.30;;;;;;4872448;29;20160;-84
2024/01/15 08:03:06;;;;;;;0.75;0.30;;;17.00;55.30;;;;;;4841043;29;20172;-82
2024/01/15 08:05:40;;;;;;;0.70;0.40;;;17.00;55.70;;;;;;4842667;29;20194;-83
2024/01/15 08:08:17;;;;;;;0.52;0.40;;;17.00;55.30;;;;;;4829661;29;20420;-83
2024/01/15 08:11:00;;;;;;;0.90;0.50;;;17.00;55.80;;;;;;4830466;29;20235;-82
2024/01/15 08:13:31;;;;;;;2.65;0.50;;;17.00;55.50;;;;;;4875918;29;20183;-82
2024/01/15 08:15:59;;;;;;;0.43;0.43;;;17.00;55.60;;;;;;4844395;29;20227;-82
2024/01/15 08:18:29;;;;;;;2.05;0.50;;;17.00;55.40;;;;;;4829348;29;20191;-83
2024/01/15 08:21:03;;;;;;;0.77;0.55;;;17.00;55.40;;;;;;4831741;29;20282;-83
2024/01/15 08:23:31;;;;;;;0.40;0.40;;;17.10;55.90;;;;;;4815648;29;20500;-81
2024/01/15 08:25:58;;;;;;;1.58;0.50;;;17.10;54.70;;;;;;4863082;29;20408;-82
2024/01/15 08:28:33;;;;;;;0.85;0.52;;;17.00;55.70;;;;;;4847219;29;20226;-83
2024/01/15 08:30:59;;;;;;;4.60;0.47;;;17.10;55.20;;;;;;4817744;29;20195;-83
2024/01/15 08:33:36;;;;;;;2.20;0.50;;;17.00;54.90;;;;;;4847314;29;20202;-83
2024/01/15 08:36:09;;;;;;;2.92;0.50;;;17.00;55.80;;;;;;4863112;29;20651;-83
2024/01/15 08:38:37;;;;;;;1.02;0.50;;;16.90;56.40;;;;;;4832298;29;20180;-82
2024/01/15 08:41:04;;;;;;;2.67;0.60;;;17.00;55.70;;;;;;4829722;29;20215;-83
2024/01/15 08:43:33;;;;;;;0.47;0.40;;;17.10;55.00;;;;;;4843986;29;20176;-83
2024/01/15 08:46:04;;;;;;;1.90;0.52;;;17.10;55.30;;;;;;4846004;29;20224;-84
2024/01/15 08:48:34;;;;;;;0.60;0.60;;;17.10;55.00;;;;;;4846452;29;20244;-83
2024/01/15 08:51:05;;;;;;;1.90;0.55;;;17.10;55.30;;;;;;4844721;29;20263;-83
2024/01/15 08:53:34;;;;;;;1.90;0.68;;;17.10;55.10;;;;;;4845899;29;20188;-81
2024/01/15 08:56:05;;;;;;;2.97;0.68;;;17.20;55.40;;;;;;4832569;29;20203;-84
2024/01/15 08:58:42;;;;;;;4.47;0.70;;;17.20;55.20;;;;;;4832007;29;20234;-84
2024/01/15 09:01:36;;;;;;;6.45;0.88;;;17.10;56.00;;;;;;4828394;29;20219;-84
2024/01/15 09:04:21;;;;;;;3.67;0.38;;;17.10;56.00;;;;;;4867613;29;20183;-84
2024/01/15 09:06:47;;;;;;;1.25;0.60;;;17.10;55.60;;;;;;4843858;29;20192;-84
2024/01/15 09:09:24;;;;;;;5.28;0.80;;;17.20;55.00;;;;;;4835972;29;20221;-85
2024/01/15 09:11:54;;;;;;;5.93;0.82;;;17.20;54.70;;;;;;4834926;29;20180;-85
2024/01/15 09:14:36;;;;;;;3.45;0.60;;;17.20;56.40;;;;;;4835976;29;20177;-85
2024/01/15 09:17:03;;;;;;;4.53;0.60;;;17.20;55.10;;;;;;4821361;29;20196;-82
2024/01/15 09:19:32;;;;;;;4.80;0.60;;;17.30;54.60;;;;;;4851121;29;20166;-84
2024/01/15 09:22:03;;;;;;;3.83;0.50;;;17.20;55.80;;;;;;4835822;29;20237;-84
2024/01/15 09:24:35;;;;;;;3.15;0.65;;;17.20;55.40;;;;;;4819569;29;20181;-84
2024/01/15 09:27:02;;;;;;;6.05;1.10;;;17.30;56.00;;;;;;4819410;29;20200;-84
2024/01/15 09:29:36;;;;;;;7.63;0.73;;;17.20;55.80;;;;;;4833979;29;20809;-83
2024/01/15 09:32:07;;;;;;;2.78;0.63;;;17.20;56.40;;;;;;4819616;29;20199;-84
2024/01/15 09:34:34;;;;;;;2.40;0.60;;;17.20;55.70;;;;;;4833861;29;20181;-83
2024/01/15 09:37:03;;;;;;;6.78;1.30;;;17.10;55.70;;;;;;4819619;29;20193;-82
2024/01/15 09:39:31;;;;;;;4.15;0.60;;;17.30;55.50;;;;;;4819241;29;20224;-83
2024/01/15 09:41:59;;;;;;;3.13;0.90;;;17.20;55.70;;;;;;4805302;29;20228;-84
2024/01/15 09:44:26;;;;;;;6.00;0.70;;;17.30;55.20;;;;;;4821549;29;20185;-83
2024/01/15 09:46:53;;;;;;;4.32;0.68;;;17.30;56.60;;;;;;4819352;29;20196;-83
2024/01/15 09:49:42;;;;;;;2.97;0.70;;;17.20;56.00;;;;;;4806742;29;20181;-83
2024/01/15 09:52:08;;;;;;;5.70;0.82;;;17.20;56.00;;;;;;4819748;29;20576;-82
2024/01/15 09:54:38;;;;;;;4.10;0.63;;;17.20;56.30;;;;;;4784095;30;20209;-80
2024/01/15 09:57:11;;;;;;;3.13;0.70;;;17.20;56.30;;;;;;4783886;30;20215;-82
2024/01/15 10:00:26;;;;;;;10.27;1.10;;;17.20;56.20;;;;;;4770774;30;20215;-83
2024/01/15 10:03:11;;;;;;;;;;;;;;;;;;;;;
2024/01/15 10:05:38;;;;;;;6.18;0.80;;;17.20;56.20;;;;;;4788064;29;20254;-82
2024/01/15 10:08:08;;;;;;;4.40;0.70;;;17.20;56.10;;;;;;4793571;29;20197;-83
2024/01/15 10:10:45;;;;;;;4.43;0.65;;;17.20;56.10;;;;;;4815621;29;20231;-83
2024/01/15 10:13:32;;;;;;;4.75;0.73;;;17.30;55.90;;;;;;4787170;29;20194;-82
2024/01/15 10:16:21;;;;;;;6.60;0.75;;;17.20;56.40;;;;;;4799458;29;20198;-82
2024/01/15 10:19:13;;;;;;;6.03;0.77;;;17.20;56.80;;;;;;4816524;29;20277;-83
2024/01/15 10:21:42;;;;;;;5.32;0.60;;;17.20;56.80;;;;;;4801892;29;20671;-83
2024/01/15 10:24:12;;;;;;;5.75;0.80;;;17.20;56.90;;;;;;4800219;29;20193;-82
2024/01/15 10:26:44;;;;;;;6.22;0.60;;;17.20;57.00;;;;;;4803443;29;20273;-83
2024/01/15 10:29:13;;;;;;;5.85;1.25;;;17.20;56.90;;;;;;4819357;29;20219;-82
2024/01/15 10:31:42;;;;;;;2.67;0.55;;;17.20;56.40;;;;;;4801441;29;20201;-84
2024/01/15 10:34:19;;;;;;;3.35;0.70;;;17.20;56.20;;;;;;4817967;29;20194;-83
2024/01/15 10:37:07;;;;;;;1.95;0.65;;;17.30;56.10;;;;;;4779432;30;20753;-83
2024/01/15 10:39:33;;;;;;;4.45;0.60;;;17.30;56.40;;;;;;4781079;30;20200;-82
2024/01/15 10:42:23;;;;;;;11.23;0.95;;;17.20;56.90;;;;;;4761627;30;20316;-82
2024/01/15 10:44:53;;;;;;;3.65;0.60;;;17.20;56.30;;;;;;4708389;30;20194;-83
2024/01/15 10:47:19;;;;;;;2.88;0.70;;;17.30;56.10;;;;;;4679078;30;20198;-83
2024/01/15 10:49:46;;;;;;;3.85;0.70;;;17.20;55.80;;;;;;4699926;30;20696;-82
2024/01/15 10:52:14;;;;;;;2.65;0.50;;;17.30;55.80;;;;;;4676434;30;20192;-83
2024/01/15 10:54:43;;;;;;;1.70;0.43;;;17.40;55.20;;;;;;4678987;30;20195;-81
2024/01/15 10:57:09;;;;;;;2.45;0.93;;;17.30;55.00;;;;;;4678689;30;20643;-82
2024/01/15 10:59:50;;;;;;;3.97;0.50;;;17.40;54.90;;;;;;4692590;30;20324;-81
2024/01/15 11:02:27;;;;;;;2.10;0.70;;;17.30;55.80;;;;;;4689701;30;20219;-81
2024/01/15 11:04:55;;;;;;;1.52;0.40;;;17.30;55.40;;;;;;4691602;30;20242;-80
2024/01/15 11:07:30;;;;;;;3.60;0.60;;;17.30;55.50;;;;;;4719962;30;20191;-80
2024/01/15 11:09:56;;;;;;;3.42;0.77;;;17.30;55.50;;;;;;4835921;29;20227;-81
2024/01/15 11:12:23;;;;;;;3.28;0.88;;;17.30;55.70;;;;;;4841248;29;20223;-81
2024/01/15 11:14:49;;;;;;;3.53;0.55;;;17.20;55.60;;;;;;4857777;29;20257;-81
2024/01/15 11:17:16;;;;;;;5.95;0.57;;;17.30;56.00;;;;;;4841582;29;20164;-82
2024/01/15 11:19:47;;;;;;;3.08;0.52;;;17.20;55.70;;;;;;4857424;29;20524;-82
2024/01/15 11:22:45;;;;;;;2.28;0.60;;;17.20;55.80;;;;;;4872947;29;20679;-81
2024/01/15 11:25:16;;;;;;;2.85;0.52;;;17.30;55.70;;;;;;4859997;29;20168;-81
2024/01/15 11:27:47;;;;;;;3.05;0.55;;;17.30;55.20;;;;;;4842564;29;20165;-83
2024/01/15 11:30:13;;;;;;;3.28;0.70;;;17.40;55.00;;;;;;4826737;29;20554;-82
2024/01/15 11:32:41;;;;;;;5.20;0.73;;;17.40;55.20;;;;;;4843385;29;20265;-82
2024/01/15 11:35:08;;;;;;;1.58;0.40;;;17.40;54.90;;;;;;4858144;29;20167;-82
2024/01/15 11:37:57;;;;;;;1.35;0.40;;;17.40;55.00;;;;;;4859030;29;20191;-82
2024/01/15 11:40:37;;;;;;;1.98;0.60;;;17.40;54.60;;;;;;4860555;29;20180;-81
2024/01/15 11:43:06;;;;;;;4.00;0.47;;;17.30;55.70;;;;;;4835206;29;20224;-82
2024/01/15 11:45:33;;;;;;;4.13;0.63;;;17.30;54.80;;;;;;4819121;29;20190;-81
2024/01/15 11:48:16;;;;;;;2.95;0.75;;;17.30;54.90;;;;;;4835209;29;20205;-82
2024/01/15 11:50:45;;;;;;;3.03;0.52;;;17.30;55.20;;;;;;4816753;29;20173;-85
2024/01/15 11:53:32;;;;;;;1.40;0.40;;;17.30;55.30;;;;;;4830707;29;20408;-86
2024/01/15 11:56:04;;;;;;;1.58;0.45;;;17.30;55.60;;;;;;4830720;29;20197;-81
2024/01/15 11:58:37;;;;;;;1.25;0.40;;;17.30;55.70;;;;;;4830537;29;20286;-82
2024/01/15 12:01:03;;;;;;;0.63;0.40;;;17.30;55.00;;;;;;4815412;29;20193;-83
2024/01/15 12:03:32;;;;;;;2.85;0.50;;;17.20;56.50;;;;;;4818228;29;20190;-82
2024/01/15 12:05:59;;;;;;;1.85;0.40;;;17.30;55.90;;;;;;4811865;29;20206;-82
2024/01/15 12:08:27;;;;;;;2.78;0.50;;;17.30;55.50;;;;;;4821075;29;20295;-84
2024/01/15 12:10:52;;;;;;;3.38;0.60;;;17.30;55.20;;;;;;4830585;29;20225;-82
2024/01/15 12:13:18;;;;;;;2.80;0.50;;;17.40;55.30;;;;;;4840100;29;20187;-82
2024/01/15 12:15:47;;;;;;;2.53;0.40;;;17.40;55.40;;;;;;4846833;29;20173;-82
2024/01/15 12:18:17;;;;;;;1.38;0.57;;;17.40;56.00;;;;;;4821711;29;20192;-82
2024/01/15 12:20:47;;;;;;;2.90;0.45;;;17.40;55.30;;;;;;4794960;29;20210;-82
2024/01/15 12:23:20;;;;;;;2.40;0.50;;;17.40;54.90;;;;;;4839108;29;20268;-80
2024/01/15 12:25:47;;;;;;;3.60;0.60;;;17.40;54.60;;;;;;4815378;29;20653;-82
2024/01/15 12:28:14;;;;;;;0.70;0.40;;;17.40;55.10;;;;;;4831538;29;20225;-83
2024/01/15 12:30:39;;;;;;;6.25;0.88;;;17.40;55.00;;;;;;4854474;29;20228;-82
2024/01/15 12:33:12;;;;;;;2.35;0.47;;;17.50;54.60;;;;;;4840892;29;20185;-82
2024/01/15 12:35:38;;;;;;;2.67;0.40;;;17.40;55.20;;;;;;4835484;29;20571;-81
2024/01/15 12:38:21;;;;;;;1.00;0.50;;;17.50;54.50;;;;;;4825949;29;20651;-83
2024/01/15 12:40:53;;;;;;;1.67;0.40;;;17.40;55.20;;;;;;4858492;29;20188;-82
2024/01/15 12:43:21;;;;;;;3.92;0.50;;;17.60;53.70;;;;;;4844739;29;20213;-83
2024/01/15 12:45:52;;;;;;;0.68;0.50;;;17.50;54.20;;;;;;4854777;29;20180;-83
2024/01/15 12:48:22;;;;;;;2.08;0.40;;;17.50;54.50;;;;;;4846107;29;20209;-82
2024/01/15 12:50:48;;;;;;;0.85;0.50;;;17.50;54.50;;;;;;4858315;29;20192;-82
2024/01/15 12:53:18;;;;;;;1.05;0.60;;;17.50;54.30;;;;;;4846554;29;20203;-82
2024/01/15 12:55:46;;;;;;;0.77;0.50;;;17.50;55.30;;;;;;4861425;29;20183;-82
2024/01/15 12:58:12;;;;;;;1.85;0.50;;;17.50;54.50;;;;;;4844955;29;20219;-82
2024/01/15 13:00:40;;;;;;;0.60;0.40;;;17.50;54.00;;;;;;4842665;29;20181;-81